Time;durP1;ratioP1;P1;durP2;ratioP2;P2;SDS_P1;SDS_P2;PMS_P1;PMS_P2;Temp;Humidity;BMP_temperature;BMP_pressure;BME280_temperature;BME280_humidity;BME280_pressure;Samples;Min_cycle;Max_cycle;Signal;HPM_P1;HPM_P2
2022/01/05 00:01:09;;;;;;;;;0.00;0.00;;;;;4.88;66.28;99935.19;5037241;28;45703;-76
2022/01/05 00:03:35;;;;;;;;;0.00;0.00;;;;;4.89;66.02;99946.53;5035338;28;45417;-74
2022/01/05 00:06:02;;;;;;;;;0.50;0.50;;;;;4.84;66.04;99954.41;5031346;28;45493;-75
2022/01/05 00:08:28;;;;;;;;;1.00;1.00;;;;;4.80;66.32;99953.56;5044463;28;45394;-75
2022/01/05 00:10:53;;;;;;;;;1.00;1.00;;;;;4.73;65.98;99951.88;5026558;28;45577;-75
2022/01/05 00:13:19;;;;;;;;;0.00;0.00;;;;;4.70;66.31;99961.50;5026036;28;46002;-74
2022/01/05 00:15:45;;;;;;;;;2.00;1.00;;;;;4.63;66.05;99964.16;5036620;28;45610;-76
2022/01/05 00:18:10;;;;;;;;;0.00;0.00;;;;;4.60;65.54;99960.66;5033202;28;45519;-76
2022/01/05 00:20:35;;;;;;;;;3.00;3.00;;;;;4.55;65.43;99957.22;5034182;28;45645;-75
2022/01/05 00:23:01;;;;;;;;;0.00;0.00;;;;;4.53;65.86;99956.38;5035972;28;45453;-75
2022/01/05 00:25:26;;;;;;;;;0.00;0.00;;;;;4.46;64.69;99947.66;5034736;28;45399;-76
2022/01/05 00:27:52;;;;;;;;;3.25;3.00;;;;;4.43;64.95;99953.78;5036223;28;45377;-75
2022/01/05 00:30:17;;;;;;;;;0.00;0.00;;;;;4.40;65.06;99964.28;5036576;28;45468;-76
2022/01/05 00:32:42;;;;;;;;;0.75;0.00;;;;;4.33;65.08;99965.16;5034711;28;45602;-75
2022/01/05 00:35:08;;;;;;;;;3.00;1.00;;;;;4.34;64.72;99959.06;5036220;28;45458;-76
2022/01/05 00:37:34;;;;;;;;;3.00;0.00;;;;;4.31;65.04;99972.13;5036665;28;45645;-75
2022/01/05 00:39:59;;;;;;;;;0.25;0.25;;;;;4.24;64.86;99973.91;5037064;28;45439;-75
2022/01/05 00:42:25;;;;;;;;;0.00;0.00;;;;;4.22;64.18;99969.56;5033880;28;45585;-74
2022/01/05 00:44:50;;;;;;;;;1.00;0.50;;;;;4.23;64.91;99981.78;5016270;28;45425;-76
2022/01/05 00:47:16;;;;;;;;;1.00;0.00;;;;;4.16;64.34;99978.31;5034348;28;45328;-75
2022/01/05 00:49:42;;;;;;;;;3.25;0.50;;;;;4.16;65.03;99986.16;5034896;28;45673;-74
2022/01/05 00:52:07;;;;;;;;;0.00;0.00;;;;;4.12;65.18;99989.66;5034108;28;46127;-76
2022/01/05 00:54:33;;;;;;;;;0.00;0.00;;;;;4.09;65.40;99998.38;5036213;28;45401;-75
2022/01/05 00:56:58;;;;;;;;;0.75;0.00;;;;;4.06;65.68;99995.78;5034405;28;45654;-76
2022/01/05 00:59:24;;;;;;;;;1.00;0.00;;;;;4.05;65.16;99994.06;5036461;28;45409;-76
2022/01/05 01:01:49;;;;;;;;;1.00;0.00;;;;;4.05;65.29;100004.50;5036573;28;45399;-75
2022/01/05 01:04:15;;;;;;;;;0.00;0.00;;;;;4.02;65.85;100001.88;5023265;28;45674;-76
2022/01/05 01:06:41;;;;;;;;;0.00;0.00;;;;;3.99;66.20;100008.88;5024616;28;45487;-75
2022/01/05 01:09:08;;;;;;;;;0.00;0.00;;;;;3.95;65.92;100010.63;5034945;28;45541;-74
2022/01/05 01:11:34;;;;;;;;;6.00;0.00;;;;;3.95;66.63;100023.69;5034343;28;46057;-75
2022/01/05 01:14:00;;;;;;;;;1.00;0.75;;;;;3.94;66.47;100018.47;5032604;28;45332;-75
2022/01/05 01:16:25;;;;;;;;;0.50;0.50;;;;;3.93;66.65;100025.44;5034762;28;45365;-74
2022/01/05 01:18:50;;;;;;;;;0.00;0.00;;;;;3.84;66.33;100023.72;5034752;28;45590;-75
2022/01/05 01:21:16;;;;;;;;;2.50;0.25;;;;;3.85;66.94;100035.03;5051045;28;45407;-76
2022/01/05 01:23:53;;;;;;;;;0.00;0.00;;;;;3.83;66.63;100035.03;5024617;28;45334;-75
2022/01/05 01:26:18;;;;;;;;;0.00;0.00;;;;;3.81;67.41;100030.69;5032554;28;45815;-75
2022/01/05 01:28:43;;;;;;;;;3.25;0.00;;;;;3.74;66.90;100032.44;5033827;28;45393;-75
2022/01/05 01:31:09;;;;;;;;;1.00;1.00;;;;;3.73;66.74;100044.66;5036137;28;46788;-74
2022/01/05 01:33:34;;;;;;;;;0.00;0.00;;;;;3.74;66.53;100042.91;5033564;28;45350;-74
2022/01/05 01:36:00;;;;;;;;;0.75;0.00;;;;;3.72;66.63;100042.91;5035563;28;45421;-76
2022/01/05 01:38:25;;;;;;;;;1.00;0.00;;;;;3.70;67.06;100049.84;5022503;28;45596;-76
2022/01/05 01:40:50;;;;;;;;;3.00;0.00;;;;;3.65;66.78;100049.00;5014637;28;45462;-75
2022/01/05 01:43:16;;;;;;;;;0.75;0.00;;;;;3.69;66.63;100066.44;5035093;28;45400;-75
2022/01/05 01:45:42;;;;;;;;;1.00;0.00;;;;;3.68;66.66;100059.44;5036943;28;45389;-76
2022/01/05 01:48:07;;;;;;;;;0.00;0.00;;;;;3.67;65.94;100064.66;5051228;28;45556;-75
2022/01/05 01:50:32;;;;;;;;;0.00;0.00;;;;;3.64;65.62;100069.91;5034212;28;45366;-75
2022/01/05 01:52:59;;;;;;;;;1.00;1.00;;;;;3.62;66.28;100082.97;5035195;28;45413;-75
2022/01/05 01:55:24;;;;;;;;;2.50;2.50;;;;;3.62;65.99;100082.97;5034927;28;45398;-75
2022/01/05 01:57:50;;;;;;;;;0.00;0.00;;;;;3.61;65.63;100081.22;5034578;28;45445;-76
2022/01/05 02:00:15;;;;;;;;;3.75;2.50;;;;;3.61;65.70;100089.06;5034336;28;45397;-76
2022/01/05 02:02:43;;;;;;;;;0.00;0.00;;;;;3.61;65.93;100094.28;5028198;28;45410;-76
2022/01/05 02:05:08;;;;;;;;;0.00;0.00;;;;;3.61;66.68;100101.28;5020563;28;45358;-76
2022/01/05 02:07:34;;;;;;;;;0.25;0.00;;;;;3.58;65.44;100107.34;5022176;28;45579;-76
2022/01/05 02:10:00;;;;;;;;;0.00;0.00;;;;;3.60;66.18;100109.97;5035083;28;45426;-76
2022/01/05 02:12:27;;;;;;;;;0.00;0.00;;;;;3.56;66.47;100114.34;5036517;28;45478;-75
2022/01/05 02:14:54;;;;;;;;;3.00;0.25;;;;;3.58;66.36;100117.81;5017701;28;45405;-75
2022/01/05 02:17:23;;;;;;;;;2.00;1.00;;;;;3.54;66.27;100118.69;5035643;28;45457;-76
2022/01/05 02:19:48;;;;;;;;;1.00;0.00;;;;;3.55;66.36;100123.94;5032546;28;46118;-75
2022/01/05 02:22:14;;;;;;;;;4.00;0.00;;;;;3.50;66.11;100114.31;5034051;28;45334;-76
2022/01/05 02:24:40;;;;;;;;;0.75;0.75;;;;;3.53;65.92;100130.00;5034916;28;45721;-75
2022/01/05 02:27:06;;;;;;;;;0.00;0.00;;;;;3.50;66.30;100124.78;5034405;28;45369;-76
2022/01/05 02:29:31;;;;;;;;;1.00;1.00;;;;;3.49;66.26;100133.47;5033707;28;46264;-75
2022/01/05 02:32:00;;;;;;;;;0.50;0.00;;;;;3.46;66.41;100136.97;5034109;28;45384;-75
2022/01/05 02:34:25;;;;;;;;;1.00;1.00;;;;;3.43;66.33;100139.59;5032283;28;45500;-75
2022/01/05 02:36:51;;;;;;;;;0.00;0.00;;;;;3.41;66.32;100132.59;5034695;28;45387;-74
2022/01/05 02:39:16;;;;;;;;;5.00;1.00;;;;;3.41;66.76;100140.44;5034319;28;45444;-75
2022/01/05 02:41:41;;;;;;;;;0.00;0.00;;;;;3.35;67.03;100126.47;5029310;28;45442;-74
2022/01/05 02:44:07;;;;;;;;;0.75;0.00;;;;;3.35;67.46;100128.22;5018992;28;45335;-75
2022/01/05 02:46:34;;;;;;;;;0.00;0.00;;;;;3.36;66.79;100136.06;5033391;28;45621;-75
2022/01/05 02:49:02;;;;;;;;;0.25;0.00;;;;;3.33;67.38;100129.97;5019290;28;46160;-74
2022/01/05 02:51:27;;;;;;;;;0.00;0.00;;;;;3.31;67.49;100139.53;5029636;28;45341;-74
2022/01/05 02:53:53;;;;;;;;;0.75;0.75;;;;;3.27;67.70;100138.66;5034016;28;45492;-75
2022/01/05 02:56:18;;;;;;;;;0.50;0.00;;;;;3.26;67.46;100131.69;5033784;28;45414;-74
2022/01/05 02:58:44;;;;;;;;;0.00;0.00;;;;;3.24;67.62;100146.47;5020204;28;50029;-75
2022/01/05 03:01:09;;;;;;;;;1.00;0.00;;;;;3.21;68.25;100146.47;5013742;28;45445;-74
2022/01/05 03:03:34;;;;;;;;;1.00;0.00;;;;;3.22;67.66;100147.34;5015576;28;45507;-75
2022/01/05 03:06:00;;;;;;;;;0.75;0.00;;;;;3.18;68.08;100154.31;5029819;28;45434;-76
2022/01/05 03:08:26;;;;;;;;;0.75;0.00;;;;;3.18;68.14;100159.53;5013826;28;46193;-75
2022/01/05 03:10:52;;;;;;;;;0.50;0.00;;;;;3.14;68.10;100152.53;5020747;28;45411;-75
2022/01/05 03:13:17;;;;;;;;;0.00;0.00;;;;;3.08;67.83;100158.59;5029661;28;45409;-75
2022/01/05 03:15:43;;;;;;;;;0.00;0.00;;;;;3.02;67.72;100156.88;5035008;28;45534;-74
2022/01/05 03:18:08;;;;;;;;;2.50;0.00;;;;;3.03;68.65;100171.66;5034968;28;45339;-76
2022/01/05 03:20:35;;;;;;;;;2.50;0.00;;;;;3.01;68.44;100165.56;5037687;28;45418;-76
2022/01/05 03:23:03;;;;;;;;;0.25;0.00;;;;;3.01;67.94;100181.22;5037557;28;45334;-75
2022/01/05 03:25:29;;;;;;;;;1.00;1.00;;;;;3.02;68.72;100182.09;5037070;28;45570;-75
2022/01/05 03:27:54;;;;;;;;;3.00;1.00;;;;;3.00;68.29;100181.22;5034202;28;45564;-75
2022/01/05 03:30:23;;;;;;;;;6.25;0.00;;;;;2.96;68.21;100180.34;5037110;28;45418;-74
2022/01/05 03:35:25;;;;;;;;;0.00;0.00;;;;;2.97;68.54;100195.13;5037813;28;45401;-75
2022/01/05 03:37:51;;;;;;;;;0.00;0.00;;;;;2.93;68.20;100197.72;5030375;28;45497;-75
2022/01/05 03:40:16;;;;;;;;;2.00;0.00;;;;;2.92;68.07;100193.38;5040125;28;45513;-75
2022/01/05 03:42:42;;;;;;;;;0.25;0.00;;;;;2.91;68.58;100199.44;5046127;28;45424;-74
2022/01/05 03:45:08;;;;;;;;;3.00;1.00;;;;;2.92;68.74;100212.50;5041244;28;45456;-75
2022/01/05 03:47:33;;;;;;;;;0.00;0.00;;;;;2.92;68.17;100212.50;5038637;28;45479;-74
2022/01/05 03:49:58;;;;;;;;;3.50;2.00;;;;;2.91;68.58;100218.59;5037875;28;45455;-74
2022/01/05 03:52:24;;;;;;;;;6.00;0.00;;;;;2.89;68.82;100219.47;5036483;28;45409;-76
2022/01/05 03:54:49;;;;;;;;;0.00;0.00;;;;;2.94;68.76;100234.28;5036994;28;45579;-75
2022/01/05 03:57:15;;;;;;;;;1.00;1.00;;;;;2.93;68.66;100229.03;5034735;28;45463;-75
2022/01/05 03:59:40;;;;;;;;;0.00;0.00;;;;;2.92;68.43;100229.94;5036772;28;45390;-74
2022/01/05 04:02:05;;;;;;;;;0.00;0.00;;;;;2.89;68.91;100222.06;5035739;28;45540;-75
2022/01/05 04:04:31;;;;;;;;;0.00;0.00;;;;;2.93;68.46;100235.16;5036581;28;45849;-76
2022/01/05 04:06:56;;;;;;;;;0.00;0.00;;;;;2.90;68.32;100232.53;5035273;28;45615;-75
2022/01/05 04:09:22;;;;;;;;;0.00;0.00;;;;;2.88;68.56;100234.22;5017514;28;45398;-75
2022/01/05 04:11:47;;;;;;;;;0.00;0.00;;;;;2.87;68.81;100235.13;5016336;28;45557;-74
2022/01/05 04:14:13;;;;;;;;;0.00;0.00;;;;;2.88;68.72;100239.47;5031125;28;45439;-74
2022/01/05 04:16:38;;;;;;;;;0.00;0.00;;;;;2.87;69.11;100242.06;5031709;28;45411;-75
2022/01/05 04:19:04;;;;;;;;;1.50;0.50;;;;;2.84;69.56;100241.19;5032357;28;45476;-76
2022/01/05 04:21:29;;;;;;;;;0.25;0.25;;;;;2.82;68.95;100245.53;5036532;28;45252;-74
2022/01/05 04:23:55;;;;;;;;;0.75;0.00;;;;;2.83;69.14;100246.41;5032790;28;45311;-75
2022/01/05 04:26:20;;;;;;;;;0.00;0.00;;;;;2.82;69.44;100252.47;5036892;28;45423;-76
2022/01/05 04:28:45;;;;;;;;;1.00;0.00;;;;;2.80;68.93;100254.22;5035553;28;45584;-76
2022/01/05 04:31:11;;;;;;;;;0.00;0.00;;;;;2.78;68.96;100258.53;5037136;28;45606;-75
2022/01/05 04:33:36;;;;;;;;;0.00;0.00;;;;;2.76;69.70;100257.66;5036660;28;45437;-75
2022/01/05 04:36:02;;;;;;;;;1.00;0.00;;;;;2.75;69.41;100259.41;5036122;28;46001;-75
2022/01/05 04:38:27;;;;;;;;;0.00;0.00;;;;;2.70;69.59;100258.47;5036730;28;45627;-75
2022/01/05 04:40:54;;;;;;;;;0.00;0.00;;;;;2.71;69.03;100254.16;5035831;28;45501;-76
2022/01/05 04:43:20;;;;;;;;;0.00;0.00;;;;;2.65;70.03;100258.44;5033250;28;45564;-75
2022/01/05 04:45:45;;;;;;;;;1.00;0.00;;;;;2.63;68.98;100261.94;5015559;28;45381;-74
2022/01/05 04:48:10;;;;;;;;;0.50;0.00;;;;;2.62;69.82;100268.00;5033113;28;45525;-75
2022/01/05 04:50:36;;;;;;;;;0.00;0.00;;;;;2.60;69.41;100265.38;5037026;28;45676;-75
2022/01/05 04:53:01;;;;;;;;;0.00;0.00;;;;;2.60;69.63;100272.34;5037524;28;45456;-75
2022/01/05 04:55:26;;;;;;;;;4.00;0.00;;;;;2.61;69.05;100277.56;5035571;28;45618;-75
2022/01/05 04:57:52;;;;;;;;;0.00;0.00;;;;;2.60;69.50;100274.97;5034784;28;45446;-75
2022/01/05 05:00:17;;;;;;;;;0.00;0.00;;;;;2.59;69.74;100279.28;5035969;28;45351;-75
2022/01/05 05:02:42;;;;;;;;;1.00;1.00;;;;;2.58;69.74;100277.56;5035799;28;45406;-75
2022/01/05 05:05:08;;;;;;;;;2.75;0.00;;;;;2.59;69.20;100283.63;5035790;28;45307;-75
2022/01/05 05:07:33;;;;;;;;;0.75;0.00;;;;;2.58;69.55;100282.78;5033168;28;45673;-75
2022/01/05 05:09:59;;;;;;;;;2.00;2.00;;;;;2.56;69.36;100279.25;5034105;28;45326;-75
2022/01/05 05:12:24;;;;;;;;;0.75;0.00;;;;;2.56;69.57;100283.59;5033685;28;45898;-76
2022/01/05 05:14:50;;;;;;;;;0.00;0.00;;;;;2.57;70.23;100294.06;5035667;28;45429;-75
2022/01/05 05:17:16;;;;;;;;;1.00;0.00;;;;;2.58;69.95;100294.91;5029566;28;45370;-75
2022/01/05 05:19:41;;;;;;;;;0.00;0.00;;;;;2.56;70.43;100305.34;5035478;28;45524;-75
2022/01/05 05:22:06;;;;;;;;;0.75;0.75;;;;;2.52;69.70;100301.00;5038165;28;45477;-75
2022/01/05 05:24:32;;;;;;;;;1.00;0.50;;;;;2.56;69.37;100309.72;5036477;28;45334;-76
2022/01/05 05:26:57;;;;;;;;;2.25;0.00;;;;;2.55;70.15;100306.22;5035021;28;45369;-75
2022/01/05 05:29:22;;;;;;;;;0.00;0.00;;;;;2.51;69.58;100307.06;5033760;28;45579;-75
2022/01/05 05:31:47;;;;;;;;;3.00;0.00;;;;;2.54;70.08;100314.91;5036092;28;45412;-75
2022/01/05 05:34:13;;;;;;;;;0.00;0.00;;;;;2.52;69.89;100314.03;5035324;28;45449;-75
2022/01/05 05:36:38;;;;;;;;;0.00;0.00;;;;;2.51;70.38;100317.50;5035230;28;45484;-76
2022/01/05 05:39:05;;;;;;;;;0.00;0.00;;;;;2.55;70.51;100323.59;5018422;28;45457;-76
2022/01/05 05:41:30;;;;;;;;;1.00;0.00;;;;;2.53;69.81;100326.19;5012985;28;45427;-75
2022/01/05 05:43:55;;;;;;;;;0.00;0.00;;;;;2.52;70.42;100334.91;5031160;28;46389;-75
2022/01/05 05:46:21;;;;;;;;;0.50;0.00;;;;;2.53;69.78;100330.56;5035002;28;45327;-74
2022/01/05 05:48:46;;;;;;;;;0.00;0.00;;;;;2.49;70.46;100337.50;5034798;28;45344;-75
2022/01/05 05:51:12;;;;;;;;;0.00;0.00;;;;;2.45;70.44;100341.78;5034620;28;45329;-76
2022/01/05 05:53:37;;;;;;;;;0.00;0.00;;;;;2.47;70.81;100347.03;5030145;28;46394;-75
2022/01/05 05:56:03;;;;;;;;;0.00;0.00;;;;;2.48;70.61;100347.03;5035109;28;45398;-77
2022/01/05 05:58:28;;;;;;;;;0.00;0.00;;;;;2.43;69.96;100347.84;5034914;28;45386;-76
2022/01/05 06:00:54;;;;;;;;;0.00;0.00;;;;;2.44;71.15;100352.22;5033718;28;45335;-76
2022/01/05 06:03:19;;;;;;;;;0.00;0.00;;;;;2.41;70.80;100352.19;5022193;28;46058;-77
2022/01/05 06:05:44;;;;;;;;;1.00;0.00;;;;;2.38;71.11;100344.31;5017531;28;45471;-75
2022/01/05 06:08:09;;;;;;;;;0.00;0.00;;;;;2.40;71.54;100353.03;5034212;28;45477;-75
2022/01/05 06:10:35;;;;;;;;;0.00;0.00;;;;;2.39;70.92;100359.13;5033238;28;45628;-76
2022/01/05 06:13:00;;;;;;;;;0.00;0.00;;;;;2.39;71.41;100360.00;5034308;28;45654;-75
2022/01/05 06:15:26;;;;;;;;;0.00;0.00;;;;;2.35;71.26;100346.91;5034969;28;45532;-76
2022/01/05 06:17:51;;;;;;;;;0.00;0.00;;;;;2.38;71.75;100359.97;5023853;28;45382;-77
2022/01/05 06:20:17;;;;;;;;;3.00;1.00;;;;;2.35;71.29;100363.41;5023002;28;45414;-75
2022/01/05 06:22:43;;;;;;;;;0.00;0.00;;;;;2.39;71.80;100372.19;5042521;28;47201;-75
2022/01/05 06:25:10;;;;;;;;;1.00;0.00;;;;;2.36;72.16;100374.75;5045030;28;45465;-75
2022/01/05 06:27:36;;;;;;;;;0.50;0.50;;;;;2.37;71.93;100371.25;5032737;28;45665;-75
2022/01/05 06:30:06;;;;;;;;;0.00;0.00;;;;;2.35;71.23;100373.00;5033241;28;45607;-76
2022/01/05 06:32:33;;;;;;;;;0.00;0.00;;;;;2.33;71.72;100369.50;5033940;28;45567;-75
2022/01/05 06:35:00;;;;;;;;;0.25;0.00;;;;;2.29;71.87;100372.09;5033267;28;45465;-76
2022/01/05 06:37:26;;;;;;;;;0.75;0.00;;;;;2.32;72.10;100379.03;5034285;28;45428;-76
2022/01/05 06:39:51;;;;;;;;;0.50;0.50;;;;;2.34;72.56;100397.31;5034196;28;45414;-75
2022/01/05 06:42:17;;;;;;;;;3.00;3.00;;;;;2.31;72.32;100396.44;5033630;28;45473;-76
2022/01/05 06:44:42;;;;;;;;;0.00;0.00;;;;;2.26;72.68;100385.09;5034712;28;45442;-76
2022/01/05 06:47:07;;;;;;;;;3.00;1.00;;;;;2.29;72.99;100398.16;5033967;28;45297;-75
2022/01/05 06:49:33;;;;;;;;;2.00;0.50;;;;;2.30;72.84;100410.34;5033256;28;45506;-75
2022/01/05 06:51:58;;;;;;;;;0.00;0.00;;;;;2.30;73.09;100412.94;5032079;28;46115;-76
2022/01/05 06:54:24;;;;;;;;;0.00;0.00;;;;;2.30;72.83;100412.94;5036978;28;45621;-75
2022/01/05 06:56:49;;;;;;;;;3.50;1.00;;;;;2.30;72.53;100412.94;5039792;28;45375;-75
2022/01/05 06:59:14;;;;;;;;;0.00;0.00;;;;;2.29;72.41;100420.75;5038095;28;45620;-76
2022/01/05 07:01:40;;;;;;;;;0.00;0.00;;;;;2.29;73.43;100421.66;5037658;28;45350;-75
2022/01/05 07:04:06;;;;;;;;;0.00;0.00;;;;;2.28;72.32;100419.03;5037383;28;45402;-76
2022/01/05 07:06:31;;;;;;;;;0.25;0.25;;;;;2.27;73.39;100422.47;5036821;28;45875;-75
2022/01/05 07:08:56;;;;;;;;;0.00;0.00;;;;;2.26;72.78;100431.16;5037277;28;45451;-75
2022/01/05 07:11:22;;;;;;;;;0.00;0.00;;;;;2.25;73.30;100425.06;5036313;28;45556;-75
2022/01/05 07:13:47;;;;;;;;;3.75;0.50;;;;;2.23;72.78;100424.19;5036610;28;45496;-76
2022/01/05 07:16:12;;;;;;;;;0.00;0.00;;;;;2.23;72.49;100424.19;5037547;28;45390;-76
2022/01/05 07:18:38;;;;;;;;;0.75;0.00;;;;;2.19;73.17;100432.81;5028422;28;45435;-76
2022/01/05 07:21:03;;;;;;;;;0.00;0.00;;;;;2.19;73.14;100435.44;5035682;28;46197;-75
2022/01/05 07:23:28;;;;;;;;;0.00;0.00;;;;;2.17;73.00;100442.38;5037369;28;45495;-76
2022/01/05 07:25:54;;;;;;;;;0.00;0.00;;;;;2.16;74.07;100445.81;5037268;28;45511;-76
2022/01/05 07:28:19;;;;;;;;;0.00;0.00;;;;;2.16;73.98;100450.13;5030277;28;45433;-75
2022/01/05 07:30:44;;;;;;;;;0.00;0.00;;;;;2.09;73.94;100449.19;5020204;28;45378;-76
2022/01/05 07:33:10;;;;;;;;;1.00;0.00;;;;;2.15;73.63;100464.94;5017637;28;45395;-75
2022/01/05 07:35:35;;;;;;;;;0.00;0.00;;;;;2.15;74.22;100471.88;5016462;28;45672;-76
2022/01/05 07:38:01;;;;;;;;;3.00;0.00;;;;;2.11;74.32;100468.34;5025539;28;45722;-77
2022/01/05 07:40:26;;;;;;;;;0.00;0.00;;;;;2.11;74.35;100463.13;5035319;28;45889;-76
2022/01/05 07:42:51;;;;;;;;;0.00;0.00;;;;;2.10;74.13;100461.41;5036265;28;45450;-75
2022/01/05 07:45:17;;;;;;;;;0.00;0.00;;;;;2.10;74.11;100466.63;5025482;28;45505;-75
2022/01/05 07:47:42;;;;;;;;;0.00;0.00;;;;;2.12;73.98;100470.09;5020699;28;45544;-75
2022/01/05 07:50:20;;;;;;;;;0.00;0.00;;;;;2.15;74.18;100474.50;5033772;28;45453;-76
2022/01/05 07:52:45;;;;;;;;;0.50;0.00;;;;;2.16;74.85;100482.34;5031188;28;45559;-76
2022/01/05 07:55:11;;;;;;;;;0.00;0.00;;;;;2.22;74.46;100482.41;5035738;28;45720;-76
2022/01/05 07:57:37;;;;;;;;;0.25;0.00;;;;;2.26;73.46;100489.44;5032674;28;46074;-78
2022/01/05 08:00:05;;;;;;;;;0.00;0.00;;;;;2.27;74.27;100485.06;5031648;28;46945;-79
2022/01/05 08:02:30;;;;;;;;;1.50;0.50;;;;;2.31;73.96;100484.28;5021946;28;45474;-77
2022/01/05 08:04:56;;;;;;;;;1.50;1.50;;;;;2.37;73.41;100486.06;5035628;28;45531;-76
2022/01/05 08:07:21;;;;;;;;;2.50;0.00;;;;;2.38;73.88;100488.69;5027554;28;45477;-76
2022/01/05 08:09:46;;;;;;;;;0.00;0.00;;;;;2.46;73.70;100507.03;5016719;28;59952;-76
2022/01/05 08:12:12;;;;;;;;;0.25;0.25;;;;;2.50;73.44;100501.00;5029751;28;45466;-76
2022/01/05 08:14:37;;;;;;;;;0.25;0.00;;;;;2.56;73.21;100503.69;5035779;28;45564;-80
2022/01/05 08:17:03;;;;;;;;;0.00;0.00;;;;;2.62;72.68;100508.09;5027825;28;45617;-75
2022/01/05 08:19:28;;;;;;;;;0.00;0.00;;;;;2.67;73.31;100516.84;5031236;28;46138;-75
2022/01/05 08:21:53;;;;;;;;;0.00;0.00;;;;;2.72;72.99;100509.06;5031184;28;45402;-76
2022/01/05 08:24:19;;;;;;;;;1.00;0.00;;;;;2.79;72.87;100519.63;5036033;28;45197;-77
2022/01/05 08:26:44;;;;;;;;;2.25;0.00;;;;;2.82;72.27;100521.38;5038871;28;45426;-77
2022/01/05 08:29:09;;;;;;;;;3.00;3.00;;;;;2.81;71.69;100515.28;5027759;28;46124;-77
2022/01/05 08:31:35;;;;;;;;;4.00;1.00;;;;;2.92;71.64;100530.19;5033430;28;45412;-75
2022/01/05 08:34:00;;;;;;;;;3.00;1.00;;;;;2.91;72.33;100526.69;5029744;28;45371;-76
2022/01/05 08:36:26;;;;;;;;;0.00;0.00;;;;;2.95;71.80;100538.94;5023782;28;45614;-77
2022/01/05 08:38:52;;;;;;;;;1.50;1.50;;;;;3.02;71.39;100529.41;5024110;28;45453;-77
2022/01/05 08:41:17;;;;;;;;;3.00;0.25;;;;;3.10;71.66;100538.22;5036358;28;45381;-77
2022/01/05 08:43:42;;;;;;;;;2.25;0.50;;;;;3.16;70.81;100525.22;5036851;28;45484;-78
2022/01/05 08:46:11;;;;;;;;;0.00;0.00;;;;;3.23;70.71;100538.31;5032232;28;45686;-77
2022/01/05 08:48:39;;;;;;;;;1.00;0.00;;;;;3.29;70.54;100534.03;5027324;28;45536;-74
2022/01/05 08:51:04;;;;;;;;;0.00;0.00;;;;;3.33;70.30;100535.81;5028686;28;45507;-75
2022/01/05 08:53:30;;;;;;;;;0.00;0.00;;;;;3.44;70.26;100543.75;5019977;28;45352;-76
2022/01/05 08:55:55;;;;;;;;;0.00;0.00;;;;;3.54;70.53;100536.88;5016340;28;45475;-75
2022/01/05 08:58:21;;;;;;;;;0.25;0.25;;;;;3.64;69.83;100543.91;5026595;28;46264;-75
2022/01/05 09:00:48;;;;;;;;;0.00;0.00;;;;;3.69;69.86;100544.81;5035154;28;45467;-74
2022/01/05 09:03:14;;;;;;;;;0.00;0.00;;;;;3.75;69.35;100549.25;5035454;28;45504;-76
2022/01/05 09:05:40;;;;;;;;;0.00;0.00;;;;;3.94;68.78;100546.75;5024860;28;45476;-75
2022/01/05 09:08:05;;;;;;;;;1.50;0.00;;;;;4.61;67.66;100554.94;5020863;28;46010;-75
2022/01/05 09:10:32;;;;;;;;;0.50;0.00;;;;;5.44;65.05;100556.91;5021574;28;45494;-74
2022/01/05 09:12:59;;;;;;;;;0.25;0.25;;;;;6.22;62.87;100553.38;5023429;28;45484;-75
2022/01/05 09:15:25;;;;;;;;;2.00;2.00;;;;;6.70;60.64;100554.97;5017519;28;45619;-75
2022/01/05 09:17:52;;;;;;;;;2.00;0.00;;;;;7.05;59.98;100559.19;5018430;28;45569;-77
2022/01/05 09:20:17;;;;;;;;;1.75;0.00;;;;;7.42;58.52;100556.28;5028742;28;45604;-79
2022/01/05 09:22:43;;;;;;;;;0.50;0.50;;;;;7.72;57.93;100556.94;5047149;28;45642;-78
2022/01/05 09:25:10;;;;;;;;;0.00;0.00;;;;;8.05;57.29;100552.25;5021380;28;45386;-78
2022/01/05 09:27:37;;;;;;;;;0.50;0.50;;;;;8.31;55.97;100563.38;5030323;28;46189;-77
2022/01/05 09:30:04;;;;;;;;;0.00;0.00;;;;;8.48;55.05;100557.09;5028753;28;45624;-76
2022/01/05 09:32:30;;;;;;;;;1.00;1.00;;;;;8.56;54.74;100547.31;5034945;28;45315;-78
2022/01/05 09:34:58;;;;;;;;;0.00;0.00;;;;;8.66;54.07;100556.88;5033336;28;45296;-78
2022/01/05 09:37:28;;;;;;;;;0.75;0.75;;;;;8.87;54.16;100573.31;5023621;28;47072;-78
2022/01/05 09:42:39;;;;;;;;;1.25;0.00;;;;;9.14;53.07;100579.09;5023024;28;45499;-78
2022/01/05 09:45:19;;;;;;;;;0.75;0.75;;;;;9.22;52.52;100575.44;5031344;28;45587;-75
2022/01/05 09:47:57;;;;;;;;;0.25;0.25;;;;;9.49;51.97;100582.97;5038759;28;46063;-76
2022/01/05 09:50:24;;;;;;;;;0.25;0.25;;;;;9.78;51.97;100595.72;5015730;28;45427;-75
2022/01/05 09:52:49;;;;;;;;;1.00;1.00;;;;;9.84;51.23;100592.09;5027110;28;45581;-78
2022/01/05 09:55:16;;;;;;;;;2.50;0.75;;;;;10.05;51.31;100588.22;5022677;28;45231;-78
2022/01/05 09:57:43;;;;;;;;;1.75;1.00;;;;;10.28;50.59;100598.41;5031314;28;46388;-80
2022/01/05 10:00:12;;;;;;;;;1.00;1.00;;;;;10.54;49.21;100597.91;5026038;28;45467;-77
2022/01/05 10:02:38;;;;;;;;;0.75;0.25;;;;;10.89;48.61;100603.41;5020652;28;45527;-76
2022/01/05 10:05:07;;;;;;;;;2.00;0.00;;;;;11.07;48.40;100603.00;5027776;28;45365;-76
2022/01/05 10:07:34;;;;;;;;;2.25;1.25;;;;;11.32;46.97;100621.84;5029261;28;45392;-76
2022/01/05 10:10:00;;;;;;;;;1.00;1.00;;;;;11.46;47.30;100615.38;5017045;28;45493;-76
2022/01/05 10:12:25;;;;;;;;;0.00;0.00;;;;;11.20;47.05;100609.78;5027939;28;45439;-78
2022/01/05 10:14:51;;;;;;;;;0.50;0.50;;;;;11.30;47.46;100609.56;5030948;28;45450;-78
2022/01/05 10:17:23;;;;;;;;;2.50;0.75;;;;;11.34;47.13;100601.53;5022562;28;46376;-79
2022/01/05 10:19:59;;;;;;;;;0.00;0.00;;;;;11.66;47.12;100606.97;5024280;28;45778;-76
2022/01/05 10:22:29;;;;;;;;;1.00;1.00;;;;;11.98;45.91;100608.88;5029336;28;45511;-76
2022/01/05 10:24:56;;;;;;;;;3.00;0.50;;;;;12.32;45.00;100615.06;5019338;28;45624;-76
2022/01/05 10:27:25;;;;;;;;;0.00;0.00;;;;;12.79;44.49;100629.66;5021151;28;48199;-76
2022/01/05 10:29:58;;;;;;;;;7.25;2.00;;;;;12.36;43.89;100619.38;5024843;28;45450;-75
2022/01/05 10:32:25;;;;;;;;;6.00;1.00;;;;;11.95;45.44;100618.66;5027131;28;45521;-78
2022/01/05 10:35:12;;;;;;;;;0.00;0.00;;;;;12.42;44.29;100620.09;5021115;28;45445;-77
2022/01/05 10:37:40;;;;;;;;;2.50;0.75;;;;;12.59;44.12;100621.41;5021030;28;45946;-78
2022/01/05 10:40:22;;;;;;;;;1.00;0.00;;;;;12.53;43.88;100632.19;5018841;28;45477;-77
2022/01/05 10:42:50;;;;;;;;;2.50;0.25;;;;;12.34;44.17;100618.53;5019936;28;45735;-77
2022/01/05 10:45:19;;;;;;;;;4.00;0.00;;;;;12.81;43.86;100640.22;5025432;28;45622;-78
2022/01/05 10:48:03;;;;;;;;;0.00;0.00;;;;;13.18;42.67;100639.19;5020139;28;46689;-77
2022/01/05 10:50:29;;;;;;;;;0.25;0.00;;;;;13.36;41.84;100608.59;5018002;28;45522;-77
2022/01/05 10:52:56;;;;;;;;;1.00;0.75;;;;;13.60;42.06;100633.47;5029214;28;45761;-77
2022/01/05 10:55:24;;;;;;;;;3.25;1.00;;;;;13.70;41.53;100634.06;5026007;28;45493;-77
2022/01/05 10:58:07;;;;;;;;;1.00;1.00;;;;;13.15;41.96;100626.00;5014183;28;46824;-77
2022/01/05 11:00:38;;;;;;;;;0.00;0.00;;;;;12.25;43.25;100638.19;5017992;28;45496;-76
2022/01/05 11:03:24;;;;;;;;;1.00;0.00;;;;;11.54;44.60;100640.78;5024472;28;45667;-78
2022/01/05 11:06:07;;;;;;;;;0.00;0.00;;;;;11.04;45.69;100626.88;5020121;28;45415;-77
2022/01/05 11:08:50;;;;;;;;;0.25;0.25;;;;;11.30;45.75;100636.91;5022015;28;46544;-77
2022/01/05 11:11:35;;;;;;;;;0.00;0.00;;;;;11.67;45.77;100645.78;5032991;28;45428;-76
2022/01/05 11:14:01;;;;;;;;;0.25;0.25;;;;;12.17;44.18;100640.19;5018019;28;45444;-77
2022/01/05 11:16:31;;;;;;;;;0.00;0.00;;;;;12.54;43.50;100634.78;5020465;28;45499;-76
2022/01/05 11:19:11;;;;;;;;;3.00;0.00;;;;;12.96;42.64;100634.47;5021023;28;46296;-80
2022/01/05 11:21:38;;;;;;;;;1.00;1.00;;;;;12.98;41.89;100619.41;5016782;28;45614;-77
2022/01/05 11:24:05;;;;;;;;;0.00;0.00;;;;;13.25;41.96;100627.44;5024492;28;45577;-77
2022/01/05 11:26:31;;;;;;;;;1.00;0.50;;;;;13.70;41.13;100638.53;5025020;28;45450;-76
2022/01/05 11:28:57;;;;;;;;;0.00;0.00;;;;;14.06;40.42;100646.19;5024389;28;46109;-77
2022/01/05 11:31:22;;;;;;;;;1.00;0.00;;;;;14.45;39.88;100643.09;5031130;28;45500;-78
2022/01/05 11:33:48;;;;;;;;;0.50;0.00;;;;;14.62;39.40;100632.78;5028447;28;45365;-77
2022/01/05 11:36:13;;;;;;;;;0.00;0.00;;;;;14.50;39.02;100628.72;5030432;28;45621;-77